createdAt,value
2019-01-09T00:00:49.491Z,85.57
2019-01-09T00:03:17.789Z,84.80
2019-01-09T00:05:46.457Z,80.87
2019-01-09T00:08:14.870Z,80.37
2019-01-09T00:10:43.621Z,88.13
2019-01-09T00:13:12.206Z,89.77
2019-01-09T00:15:40.519Z,90.23
2019-01-09T00:18:08.807Z,85.33
2019-01-09T00:20:38.746Z,80.47
2019-01-09T00:23:07.085Z,78.70
2019-01-09T00:25:35.634Z,75.83
2019-01-09T00:28:04.098Z,77.27
2019-01-09T00:30:32.406Z,81.97
2019-01-09T00:33:00.975Z,80.70
2019-01-09T00:35:37.005Z,79.80
2019-01-09T00:37:59.574Z,77.50
2019-01-09T00:40:27.874Z,78.20
2019-01-09T00:42:56.159Z,74.03
2019-01-09T00:45:24.462Z,73.93
2019-01-09T00:47:52.772Z,72.47
2019-01-09T00:50:21.081Z,68.47
2019-01-09T00:52:49.470Z,64.93
2019-01-09T00:55:18.031Z,62.30
2019-01-09T00:57:46.305Z,59.23
2019-01-09T01:00:18.155Z,59.87
2019-01-09T01:03:06.610Z,88.27
2019-01-09T01:05:58.134Z,85.97
2019-01-09T01:08:35.214Z,86.10
2019-01-09T01:11:26.705Z,82.93
2019-01-09T01:14:15.187Z,81.67
2019-01-09T01:16:58.471Z,81.50
2019-01-09T01:19:32.761Z,78.03
2019-01-09T01:22:04.329Z,73.73
2019-01-09T01:24:47.467Z,85.67
2019-01-09T01:27:19.095Z,95.77
2019-01-09T01:29:56.667Z,99.57
2019-01-09T01:32:37.436Z,96.27
2019-01-09T01:35:09.391Z,92.87
2019-01-09T01:37:40.969Z,92.50
2019-01-09T01:40:36.463Z,91.67
2019-01-09T01:43:14.267Z,89.77
2019-01-09T01:45:57.588Z,86.97
2019-01-09T01:48:47.282Z,89.10
2019-01-09T01:51:24.514Z,86.60
2019-01-09T01:54:01.744Z,85.07
2019-01-09T01:56:33.289Z,81.30
2019-01-09T01:59:13.766Z,82.20
2019-01-09T02:02:00.683Z,78.13
2019-01-09T02:04:48.761Z,86.57
2019-01-09T02:07:20.321Z,93.57
2019-01-09T02:10:13.121Z,92.53
2019-01-09T02:13:04.131Z,88.90
2019-01-09T02:16:08.867Z,86.23
2019-01-09T02:18:40.720Z,88.27
2019-01-09T02:21:12.582Z,98.17
2019-01-09T02:23:52.444Z,95.07
2019-01-09T02:26:40.588Z,95.73
2019-01-09T02:29:31.490Z,86.80
2019-01-09T02:32:15.123Z,89.37
2019-01-09T02:34:43.421Z,89.30
2019-01-09T02:37:11.976Z,93.83
2019-01-09T02:39:40.267Z,92.23
2019-01-09T02:42:08.570Z,89.53
2019-01-09T02:44:37.124Z,95.20
2019-01-09T02:47:05.402Z,99.73
2019-01-09T02:49:33.950Z,94.77
2019-01-09T02:52:02.661Z,92.70
2019-01-09T02:54:30.960Z,91.10
2019-01-09T02:56:59.518Z,91.30
2019-01-09T02:59:28.101Z,91.07
2019-01-09T03:01:56.679Z,88.93
2019-01-09T03:04:25.766Z,87.20
2019-01-09T03:06:54.361Z,85.53
2019-01-09T03:09:22.946Z,86.03
2019-01-09T03:11:51.258Z,84.60
2019-01-09T03:14:19.613Z,82.47
2019-01-09T03:16:48.185Z,82.20
2019-01-09T03:19:16.774Z,80.80
2019-01-09T03:21:45.074Z,78.17
2019-01-09T03:24:13.640Z,75.80
2019-01-09T03:26:41.988Z,76.77
2019-01-09T03:29:10.589Z,76.37
2019-01-09T03:31:38.902Z,77.70
2019-01-09T03:34:07.458Z,73.77
2019-01-09T03:36:36.042Z,73.50
2019-01-09T03:39:07.839Z,70.40
2019-01-09T03:41:36.174Z,71.10
2019-01-09T03:44:04.757Z,69.37
2019-01-09T03:46:33.049Z,69.37
2019-01-09T03:49:01.332Z,63.83
2019-01-09T03:51:29.741Z,64.30
2019-01-09T03:53:58.482Z,65.20
2019-01-09T03:56:28.708Z,66.23
2019-01-09T03:58:57.014Z,63.40
2019-01-09T04:01:25.386Z,63.10
2019-01-09T04:03:54.045Z,58.53
2019-01-09T04:06:22.320Z,60.00
2019-01-09T04:08:50.600Z,57.87
2019-01-09T04:11:18.901Z,60.37
2019-01-09T04:13:47.461Z,55.83
2019-01-09T04:16:15.746Z,58.30
2019-01-09T04:18:44.309Z,56.53
2019-01-09T04:21:12.900Z,54.27
2019-01-09T04:23:41.194Z,54.60
2019-01-09T04:26:09.479Z,53.33
2019-01-09T04:28:37.814Z,52.57
2019-01-09T04:31:06.420Z,52.07
2019-01-09T04:33:34.955Z,51.57
2019-01-09T04:36:03.589Z,50.50
2019-01-09T04:38:31.971Z,50.20
2019-01-09T04:41:00.254Z,48.90
2019-01-09T04:43:28.928Z,49.87
2019-01-09T04:45:57.227Z,49.43
2019-01-09T04:48:25.507Z,48.47
2019-01-09T04:50:54.166Z,46.53
2019-01-09T04:53:22.752Z,46.00
2019-01-09T04:55:51.074Z,43.90
2019-01-09T04:58:19.619Z,44.87
2019-01-09T05:00:47.940Z,44.27
2019-01-09T05:03:16.206Z,51.30
2019-01-09T05:05:44.495Z,53.13
2019-01-09T05:08:13.126Z,58.83
2019-01-09T05:10:41.705Z,51.03
2019-01-09T05:13:09.985Z,51.47
2019-01-09T05:15:38.271Z,49.90
2019-01-09T05:18:06.566Z,49.77
2019-01-09T05:20:34.841Z,48.27
2019-01-09T05:23:03.234Z,46.93
2019-01-09T05:25:31.883Z,45.47
2019-01-09T05:28:00.238Z,46.57
2019-01-09T05:30:28.562Z,45.87
2019-01-09T05:32:57.229Z,43.63
2019-01-09T05:35:25.811Z,42.10
2019-01-09T05:37:54.201Z,42.00
2019-01-09T05:40:22.474Z,41.00
2019-01-09T05:42:52.401Z,40.90
2019-01-09T05:45:20.700Z,41.50
2019-01-09T05:47:49.251Z,41.27
2019-01-09T05:50:17.827Z,40.03
2019-01-09T05:52:48.042Z,37.73
2019-01-09T05:55:16.339Z,36.87
2019-01-09T05:57:44.722Z,37.43
2019-01-09T06:00:13.287Z,36.47
2019-01-09T06:02:41.591Z,35.77
2019-01-09T06:05:10.144Z,34.30
2019-01-09T06:07:38.444Z,34.47
2019-01-09T06:10:07.894Z,36.23
2019-01-09T06:12:36.510Z,34.73
2019-01-09T06:15:06.023Z,35.17
2019-01-09T06:17:34.318Z,32.17
2019-01-09T06:20:02.879Z,33.47
2019-01-09T06:22:31.183Z,32.13
2019-01-09T06:24:59.734Z,31.83
2019-01-09T06:27:28.041Z,29.03
2019-01-09T06:29:56.600Z,28.47
2019-01-09T06:32:25.018Z,30.70
2019-01-09T06:34:53.659Z,29.07
2019-01-09T06:37:27.417Z,28.70
2019-01-09T06:39:52.255Z,28.47
2019-01-09T06:42:20.847Z,27.50
2019-01-09T06:44:49.430Z,28.67
2019-01-09T06:47:18.010Z,26.70
2019-01-09T06:49:46.600Z,25.77
2019-01-09T06:52:15.182Z,26.73
2019-01-09T06:54:43.470Z,25.43
2019-01-09T06:57:11.891Z,26.03
2019-01-09T06:59:40.520Z,25.17
2019-01-09T07:02:08.815Z,25.93
2019-01-09T07:04:37.118Z,23.70
2019-01-09T07:07:05.765Z,24.00
2019-01-09T07:09:34.038Z,23.60
2019-01-09T07:12:03.810Z,22.73
2019-01-09T07:14:32.167Z,23.53
2019-01-09T07:17:00.462Z,21.90
2019-01-09T07:19:29.198Z,22.30
2019-01-09T07:21:57.482Z,22.57
2019-01-09T07:24:26.049Z,20.83
2019-01-09T07:26:54.637Z,21.47
2019-01-09T07:29:23.223Z,20.17
2019-01-09T07:31:51.807Z,20.30
2019-01-09T07:34:20.390Z,20.03
2019-01-09T07:36:48.687Z,20.37
2019-01-09T07:39:17.268Z,19.17
2019-01-09T07:41:45.835Z,21.20
2019-01-09T07:44:14.116Z,18.43
2019-01-09T07:46:42.712Z,19.30
2019-01-09T07:49:11.375Z,18.53
2019-01-09T07:51:39.670Z,18.63
2019-01-09T07:54:08.243Z,17.53
2019-01-09T07:56:36.543Z,17.10
2019-01-09T07:59:04.837Z,16.53
2019-01-09T08:01:33.480Z,17.13
2019-01-09T08:04:02.076Z,17.63
2019-01-09T08:06:30.647Z,16.53
2019-01-09T08:08:59.230Z,15.63
2019-01-09T08:11:27.507Z,15.77
2019-01-09T08:13:56.092Z,16.43
2019-01-09T08:16:24.390Z,15.60
2019-01-09T08:18:52.947Z,15.73
2019-01-09T08:21:21.538Z,16.07
2019-01-09T08:23:50.121Z,14.80
2019-01-09T08:26:18.416Z,16.03
2019-01-09T08:28:46.987Z,13.93
2019-01-09T08:31:15.574Z,13.77
2019-01-09T08:33:44.148Z,13.77
2019-01-09T08:36:12.731Z,13.23
2019-01-09T08:38:41.314Z,13.67
2019-01-09T08:41:09.742Z,13.27
2019-01-09T08:43:38.379Z,12.90
2019-01-09T08:46:06.966Z,13.30
2019-01-09T08:48:37.605Z,13.33
2019-01-09T08:51:05.286Z,13.23
2019-01-09T08:53:33.940Z,13.33
2019-01-09T08:56:02.217Z,12.87
2019-01-09T08:58:30.519Z,16.53
2019-01-09T09:00:58.831Z,19.93
2019-01-09T09:03:27.458Z,27.27
2019-01-09T09:05:56.056Z,25.97
2019-01-09T09:08:24.831Z,25.90
2019-01-09T09:10:53.426Z,28.93
2019-01-09T09:13:33.270Z,34.07
2019-01-09T09:16:01.804Z,32.60
2019-01-09T09:18:30.431Z,31.13
2019-01-09T09:20:58.745Z,31.57
2019-01-09T09:23:27.034Z,31.97
2019-01-09T09:25:55.662Z,31.50
2019-01-09T09:28:24.245Z,34.87
2019-01-09T09:30:52.541Z,33.37
2019-01-09T09:33:20.830Z,33.30
2019-01-09T09:35:49.132Z,32.83
2019-01-09T09:38:20.599Z,33.83
2019-01-09T09:40:47.710Z,34.50
2019-01-09T09:43:15.996Z,34.17
2019-01-09T09:45:44.548Z,34.67
2019-01-09T09:48:12.875Z,33.80
2019-01-09T09:50:41.610Z,33.93
2019-01-09T09:53:09.922Z,33.27
2019-01-09T09:55:38.471Z,34.63
2019-01-09T09:58:07.079Z,32.70
2019-01-09T10:00:35.390Z,30.93
2019-01-09T10:03:03.672Z,33.17
2019-01-09T10:05:32.290Z,36.40
2019-01-09T10:08:00.874Z,38.10
2019-01-09T10:10:29.149Z,38.47
2019-01-09T10:12:57.458Z,37.63
2019-01-09T10:15:26.118Z,36.13
2019-01-09T10:17:54.422Z,35.73
2019-01-09T10:20:22.706Z,35.13
2019-01-09T10:22:51.682Z,35.53
2019-01-09T10:25:20.555Z,33.57
2019-01-09T10:27:48.858Z,34.20
2019-01-09T10:30:21.885Z,33.20
2019-01-09T10:32:50.211Z,34.63
2019-01-09T10:35:18.785Z,33.10
2019-01-09T10:37:47.231Z,31.57
2019-01-09T10:40:18.005Z,34.40
2019-01-09T10:42:46.571Z,46.83
2019-01-09T10:45:17.933Z,57.23
2019-01-09T10:47:46.511Z,67.13
2019-01-09T10:50:16.142Z,60.07
2019-01-09T10:52:44.802Z,72.37
2019-01-09T10:55:15.387Z,67.13
2019-01-09T10:57:43.830Z,64.70
2019-01-09T11:00:20.595Z,61.67
2019-01-09T11:02:48.909Z,58.50
2019-01-09T11:05:17.216Z,58.93
2019-01-09T11:07:45.522Z,57.13
2019-01-09T11:10:16.418Z,54.47
2019-01-09T11:12:46.795Z,54.83
2019-01-09T11:15:15.068Z,53.53
2019-01-09T11:17:43.398Z,56.60
2019-01-09T11:20:16.875Z,59.57
2019-01-09T11:22:45.237Z,55.37
2019-01-09T11:25:19.246Z,53.40
2019-01-09T11:27:47.834Z,51.17
2019-01-09T11:30:17.570Z,57.50
2019-01-09T11:32:46.230Z,62.67
2019-01-09T11:35:16.830Z,66.50
2019-01-09T11:37:45.115Z,65.23
2019-01-09T11:40:16.211Z,65.73
2019-01-09T11:42:46.499Z,69.20
2019-01-09T11:45:16.762Z,63.40
2019-01-09T11:47:45.102Z,64.57
2019-01-09T11:50:14.987Z,61.20
2019-01-09T11:52:43.684Z,74.90
2019-01-09T11:55:13.334Z,78.57
2019-01-09T11:57:41.622Z,82.63
2019-01-09T12:00:19.402Z,81.83
2019-01-09T12:02:48.063Z,79.73
2019-01-09T12:05:16.347Z,79.00
2019-01-09T12:07:44.919Z,75.40
2019-01-09T12:10:18.821Z,74.10
2019-01-09T12:12:47.411Z,72.60
2019-01-09T12:15:16.718Z,71.50
2019-01-09T12:17:45.306Z,69.83
2019-01-09T12:20:16.087Z,66.40
2019-01-09T12:22:47.481Z,68.03
2019-01-09T12:25:15.763Z,68.23
2019-01-09T12:27:44.340Z,66.37
2019-01-09T12:30:18.599Z,65.20
2019-01-09T12:32:47.251Z,120.13
2019-01-09T12:35:15.823Z,102.50
2019-01-09T12:37:44.403Z,94.90
2019-01-09T12:40:12.698Z,96.97
2019-01-09T12:42:41.231Z,94.90
2019-01-09T12:45:14.783Z,95.23
2019-01-09T12:47:43.086Z,86.03
2019-01-09T12:50:20.387Z,83.00
2019-01-09T12:52:48.693Z,87.80
2019-01-09T12:55:16.973Z,113.37
2019-01-09T12:57:45.575Z,117.60
2019-01-09T13:00:17.539Z,111.70
2019-01-09T13:02:45.858Z,101.63
2019-01-09T13:05:14.493Z,92.73
2019-01-09T13:07:42.782Z,88.70
2019-01-09T13:10:11.358Z,89.13
2019-01-09T13:12:39.955Z,100.23
2019-01-09T13:15:09.927Z,110.90
2019-01-09T13:17:38.219Z,105.53
2019-01-09T13:20:10.217Z,95.03
2019-01-09T13:22:38.778Z,92.80
2019-01-09T13:25:08.326Z,91.40
2019-01-09T13:27:36.612Z,86.43
2019-01-09T13:30:07.824Z,95.03
2019-01-09T13:32:36.400Z,91.67
2019-01-09T13:35:06.442Z,104.10
2019-01-09T13:37:34.734Z,98.03
2019-01-09T13:40:04.982Z,100.70
2019-01-09T13:42:33.592Z,96.27
2019-01-09T13:45:02.179Z,95.97
2019-01-09T13:47:30.779Z,92.77
2019-01-09T13:49:59.447Z,90.27
2019-01-09T13:52:28.037Z,91.93
2019-01-09T13:54:57.982Z,89.77
2019-01-09T13:57:26.286Z,86.37
2019-01-09T13:59:54.583Z,83.37
2019-01-09T14:02:22.902Z,84.43
2019-01-09T14:04:51.203Z,80.67
2019-01-09T14:07:19.492Z,83.60
2019-01-09T14:09:48.114Z,80.13
2019-01-09T14:12:16.403Z,78.40
2019-01-09T14:14:44.978Z,75.60
2019-01-09T14:17:13.559Z,72.43
2019-01-09T14:19:42.142Z,74.23
2019-01-09T14:22:10.731Z,72.90
2019-01-09T14:24:39.020Z,71.77
2019-01-09T14:27:07.593Z,70.77
2019-01-09T14:29:35.872Z,69.23
2019-01-09T14:32:04.455Z,98.13
2019-01-09T14:34:33.034Z,82.10
2019-01-09T14:37:01.614Z,73.97
2019-01-09T14:39:29.964Z,74.57
2019-01-09T14:41:58.273Z,71.97
2019-01-09T14:44:26.573Z,71.80
2019-01-09T14:46:55.442Z,70.40
2019-01-09T14:49:24.023Z,68.50
2019-01-09T14:51:52.606Z,69.67
2019-01-09T14:54:20.912Z,67.07
2019-01-09T14:56:49.446Z,67.27
2019-01-09T14:59:17.755Z,69.20
2019-01-09T15:01:46.057Z,66.10
2019-01-09T15:04:14.400Z,67.90
2019-01-09T15:06:42.789Z,65.80
2019-01-09T15:09:11.122Z,61.20
2019-01-09T15:11:39.743Z,62.13
2019-01-09T15:14:08.037Z,62.00
2019-01-09T15:16:36.327Z,62.93
2019-01-09T15:19:04.874Z,58.40
2019-01-09T15:21:33.180Z,59.90
2019-01-09T15:24:08.382Z,59.80
2019-01-09T15:26:31.755Z,58.50
2019-01-09T15:29:00.346Z,58.20
2019-01-09T15:31:28.719Z,56.07
2019-01-09T15:33:57.003Z,56.20
2019-01-09T15:36:25.578Z,55.50
2019-01-09T15:38:54.166Z,53.87
2019-01-09T15:41:22.492Z,55.07
2019-01-09T15:43:50.779Z,50.53
2019-01-09T15:46:19.079Z,55.77
2019-01-09T15:48:47.674Z,61.20
2019-01-09T15:51:16.266Z,68.00
2019-01-09T15:53:44.557Z,70.03
2019-01-09T15:56:13.292Z,66.43
2019-01-09T15:58:41.606Z,66.07
2019-01-09T16:01:10.130Z,68.93
2019-01-09T16:03:38.673Z,92.60
2019-01-09T16:06:06.985Z,118.47
2019-01-09T16:08:35.627Z,114.50
2019-01-09T16:11:04.529Z,112.80
2019-01-09T16:13:32.876Z,101.00
2019-01-09T16:16:01.482Z,96.80
2019-01-09T16:18:29.775Z,83.00
2019-01-09T16:20:58.343Z,77.30
2019-01-09T16:23:26.670Z,74.43
2019-01-09T16:25:54.966Z,77.57
2019-01-09T16:28:23.587Z,86.63
2019-01-09T16:30:55.168Z,104.07
2019-01-09T16:33:23.727Z,99.30
2019-01-09T16:35:52.015Z,89.67
2019-01-09T16:38:20.312Z,86.70
2019-01-09T16:40:51.420Z,84.93
2019-01-09T16:43:27.171Z,84.03
2019-01-09T16:45:58.111Z,85.23
2019-01-09T16:48:26.699Z,83.87
2019-01-09T16:50:54.975Z,78.67
2019-01-09T16:53:25.691Z,77.30
2019-01-09T16:55:53.778Z,73.57
2019-01-09T16:58:24.931Z,82.83
2019-01-09T17:00:53.604Z,92.77
2019-01-09T17:03:22.601Z,117.40
2019-01-09T17:05:50.999Z,106.33
2019-01-09T17:08:21.460Z,87.90
2019-01-09T17:10:50.200Z,91.80
2019-01-09T17:13:18.529Z,86.60
2019-01-09T17:15:47.343Z,84.03
2019-01-09T17:18:16.045Z,82.87
2019-01-09T17:20:44.690Z,82.57
2019-01-09T17:23:13.047Z,79.93
2019-01-09T17:25:41.700Z,79.23
2019-01-09T17:28:10.512Z,79.67
2019-01-09T17:30:38.831Z,115.33
2019-01-09T17:33:07.555Z,153.97
2019-01-09T17:35:36.234Z,146.73
2019-01-09T17:38:04.818Z,128.23
2019-01-09T17:40:40.932Z,127.17
2019-01-09T17:43:03.831Z,122.37
2019-01-09T17:45:32.415Z,124.27
2019-01-09T17:48:00.959Z,118.33
2019-01-09T17:50:34.496Z,143.80
2019-01-09T17:53:02.791Z,136.70
2019-01-09T17:55:31.406Z,140.57
2019-01-09T17:57:59.783Z,141.57
2019-01-09T18:00:34.563Z,138.27
2019-01-09T18:03:03.150Z,138.77
2019-01-09T18:05:31.715Z,134.17
2019-01-09T18:08:00.023Z,133.00
2019-01-09T18:10:28.346Z,130.63
2019-01-09T18:12:57.175Z,128.10
2019-01-09T18:15:25.746Z,122.60
2019-01-09T18:17:54.347Z,119.33
2019-01-09T18:20:23.642Z,120.97
2019-01-09T18:22:52.334Z,129.50
2019-01-09T18:25:25.701Z,125.13
2019-01-09T18:27:54.514Z,124.60
2019-01-09T18:30:29.140Z,122.77
2019-01-09T18:33:03.868Z,121.10
2019-01-09T18:35:38.333Z,117.83
2019-01-09T18:38:16.480Z,117.07
2019-01-09T18:41:06.427Z,113.00
2019-01-09T18:43:38.018Z,114.37
2019-01-09T18:46:34.273Z,110.13
2019-01-09T18:49:17.539Z,117.73
2019-01-09T18:52:07.220Z,125.40
2019-01-09T18:54:35.860Z,121.30
2019-01-09T18:57:04.450Z,125.90
2019-01-09T18:59:33.242Z,149.37
2019-01-09T19:02:01.815Z,165.50
2019-01-09T19:04:30.404Z,158.83
2019-01-09T19:06:58.716Z,160.37
2019-01-09T19:09:27.007Z,152.17
2019-01-09T19:11:55.639Z,137.97
2019-01-09T19:14:23.945Z,131.30
2019-01-09T19:16:52.290Z,128.67
2019-01-09T19:19:20.881Z,124.27
2019-01-09T19:21:49.351Z,126.67
2019-01-09T19:24:17.723Z,132.80
2019-01-09T19:26:46.019Z,126.13
2019-01-09T19:29:14.603Z,125.93
2019-01-09T19:31:43.181Z,123.60
2019-01-09T19:34:11.975Z,123.23
2019-01-09T19:36:40.563Z,117.97
2019-01-09T19:39:09.425Z,118.33
2019-01-09T19:41:38.048Z,119.13
2019-01-09T19:44:06.344Z,113.63
2019-01-09T19:46:34.665Z,113.57
2019-01-09T19:49:03.384Z,113.00
2019-01-09T19:51:32.063Z,113.80
2019-01-09T19:54:00.640Z,160.60
2019-01-09T19:56:28.998Z,160.27
2019-01-09T19:58:57.542Z,152.07
2019-01-09T20:01:26.189Z,148.50
2019-01-09T20:03:54.775Z,138.57
2019-01-09T20:06:23.350Z,136.43
2019-01-09T20:08:51.714Z,136.43
2019-01-09T20:11:26.352Z,134.47
2019-01-09T20:13:50.769Z,138.43
2019-01-09T20:16:19.465Z,138.77
2019-01-09T20:18:49.931Z,133.87
2019-01-09T20:21:17.933Z,130.17
2019-01-09T20:23:46.288Z,139.47
2019-01-09T20:26:14.721Z,166.83
2019-01-09T20:28:43.109Z,140.10
2019-01-09T20:31:11.528Z,150.80
2019-01-09T20:33:40.150Z,148.40
2019-01-09T20:36:08.437Z,141.23
2019-01-09T20:38:37.146Z,139.53
2019-01-09T20:41:05.495Z,138.13
2019-01-09T20:43:34.128Z,142.10
2019-01-09T20:46:02.619Z,140.93
2019-01-09T20:48:31.326Z,137.23
2019-01-09T20:50:59.693Z,136.00
2019-01-09T20:53:28.098Z,133.60
2019-01-09T20:55:56.666Z,122.53
2019-01-09T20:58:25.253Z,131.07
2019-01-09T21:00:53.738Z,128.87
2019-01-09T21:03:22.455Z,133.97
2019-01-09T21:05:50.855Z,126.23
2019-01-09T21:08:19.226Z,129.73
2019-01-09T21:10:47.800Z,119.93
2019-01-09T21:13:16.607Z,129.60
2019-01-09T21:15:45.278Z,133.13
2019-01-09T21:18:13.601Z,136.20
2019-01-09T21:20:42.204Z,137.60
2019-01-09T21:23:10.781Z,133.27
2019-01-09T21:25:39.100Z,130.87
2019-01-09T21:28:07.757Z,127.00
2019-01-09T21:30:36.240Z,120.43
2019-01-09T21:33:05.167Z,124.73
2019-01-09T21:35:33.470Z,131.47
2019-01-09T21:38:01.804Z,128.03
2019-01-09T21:40:30.464Z,130.03
2019-01-09T21:42:59.078Z,136.77
2019-01-09T21:45:27.579Z,130.77
2019-01-09T21:47:56.147Z,126.17
2019-01-09T21:50:26.066Z,132.07
2019-01-09T21:52:54.720Z,148.97
2019-01-09T21:55:25.141Z,175.40
2019-01-09T21:57:53.438Z,159.50
2019-01-09T22:00:26.530Z,134.87
2019-01-09T22:02:55.202Z,144.27
2019-01-09T22:05:24.256Z,147.00
2019-01-09T22:07:52.877Z,141.93
2019-01-09T22:10:26.709Z,143.30
2019-01-09T22:12:55.364Z,137.40
2019-01-09T22:15:23.823Z,132.27
2019-01-09T22:17:52.129Z,128.40
2019-01-09T22:20:20.440Z,128.77
2019-01-09T22:22:48.763Z,161.03
2019-01-09T22:25:17.359Z,143.20
2019-01-09T22:27:45.955Z,123.47
2019-01-09T22:30:19.950Z,121.13
2019-01-09T22:32:48.558Z,121.93
2019-01-09T22:35:17.226Z,118.50
2019-01-09T22:37:45.512Z,115.27
2019-01-09T22:40:16.385Z,110.03
2019-01-09T22:42:45.019Z,107.93
2019-01-09T22:45:14.163Z,107.77
2019-01-09T22:47:42.511Z,106.33
2019-01-09T22:50:16.599Z,107.17
2019-01-09T22:52:45.194Z,109.97
2019-01-09T22:55:13.772Z,103.30
2019-01-09T22:57:42.486Z,102.00
2019-01-09T23:00:20.161Z,100.60
2019-01-09T23:02:48.465Z,100.40
2019-01-09T23:05:17.223Z,101.07
2019-01-09T23:07:46.693Z,99.93
2019-01-09T23:10:15.246Z,112.83
2019-01-09T23:12:43.896Z,120.23
2019-01-09T23:15:12.461Z,135.33
2019-01-09T23:17:41.005Z,137.30
2019-01-09T23:20:12.006Z,142.20
2019-01-09T23:22:40.593Z,132.73
2019-01-09T23:25:08.906Z,130.53
2019-01-09T23:27:37.270Z,130.63
2019-01-09T23:30:10.406Z,149.07
2019-01-09T23:32:39.030Z,129.93
2019-01-09T23:35:09.363Z,127.23
2019-01-09T23:37:37.658Z,141.33
2019-01-09T23:40:16.206Z,139.20
2019-01-09T23:42:44.509Z,138.13
2019-01-09T23:45:14.253Z,137.27
2019-01-09T23:47:42.681Z,131.73
2019-01-09T23:50:11.816Z,127.50
2019-01-09T23:52:40.589Z,125.60
2019-01-09T23:55:12.711Z,124.13
2019-01-09T23:57:41.442Z,127.70
